Flight Track Log - Related Links

Times and Time Zones

All times are in EST time to prevent confusion due to time zone crossing. See the EJA829P flight status page for this flight to view local times or setup timezone preferences in your user account.

Time Position Orientation Groundspeed Altitude Reporting Facility
EST Latitude Longitude Course Direction KTS MPH feet Rate Location/Type
Mon 05:29:38 PM 38.3450 -85.7242 18° North 185 213 27,000  Level Indianapolis Center
Mon 05:30:40 PM 38.3981 -85.6925 25° Northeast 251 289 4,100 -9,463 Descending Indianapolis Center
Mon 05:31:41 PM 38.4689 -85.6633 18° North 265 305 7,600 3,561 Climbing Indianapolis Center
Mon 05:32:43 PM 38.5472 -85.6247 21° North 292 336 11,400 3,387 Climbing Indianapolis Center
Mon 05:33:45 PM 38.6392 -85.6228 North 307 353 14,600 2,855 Climbing Indianapolis Center
Mon 05:34:47 PM 38.7244 -85.5808 21° North 327 376 17,300 2,177 Climbing Indianapolis Center
Mon 05:35:00 PM 38.9170 -85.7134 18° North  Level Estimated
Mon 05:35:49 PM 38.8067 -85.5419 20° North 318 366 19,100  Level Indianapolis Center
Mon 05:36:51 PM 38.8922 -85.5294 North 317 365 20,800 1,694 Climbing Indianapolis Center
Mon 05:37:53 PM 39.0008 -85.5297 360° North 326 375 22,600 1,597 Climbing Indianapolis Center
Mon 05:38:55 PM 39.0950 -85.5317 359° North 337 388 24,100 1,306 Climbing Indianapolis Center
Mon 05:39:57 PM 39.1900 -85.5300 North 342 394 25,300 1,073 Climbing Indianapolis Center
Mon 05:40:58 PM 39.2886 -85.5303 360° North 351 404 26,300 829 Climbing Indianapolis Center
Mon 05:42:00 PM 39.3914 -85.5303 360° North 363 418 27,000 339 Climbing Indianapolis Center
Mon 05:43:02 PM 39.5197 -85.5292 360° North 384 442 27,000  Level Indianapolis Center
Mon 05:44:04 PM 39.6275 -85.5303 360° North 389 448 27,000  Level Indianapolis Center
Mon 05:45:06 PM 39.7433 -85.5292 360° North 412 474 27,000  Level Indianapolis Center
Mon 05:46:08 PM 39.8633 -85.5294 360° North 431 496 27,000  Level Indianapolis Center
Mon 05:47:10 PM 39.9811 -85.5294 360° North 428 493 27,000 -968 Level Indianapolis Center
Mon 05:48:12 PM 40.1242 -85.5289 360° North 431 496 25,000 -968 Descending Indianapolis Center
Mon 05:49:14 PM 40.2406 -85.5286 360° North 426 490 25,000  Level Indianapolis Center
Mon 05:50:16 PM 40.3553 -85.5275 360° North 419 482 25,000  Level Indianapolis Center
Mon 05:51:00 PM 40.4464 -85.5261 North 414 476 25,000  Level Chicago Center
Mon 05:52:03 PM 40.5633 -85.5258 360° North 420 483 25,000  Level Chicago Center
Mon 05:53:05 PM 40.6742 -85.5275 359° North 416 479 25,000  Level Chicago Center
Mon 05:54:07 PM 40.7908 -85.5275 360° North 419 482 25,000  Level Chicago Center
Mon 05:55:09 PM 40.9314 -85.5269 360° North 421 484 25,000  Level Chicago Center
Mon 05:56:11 PM 41.0481 -85.5261 360° North 421 484 25,000  Level Chicago Center
Mon 05:57:13 PM 41.1667 -85.5269 360° North 424 488 25,000  Level Chicago Center
Mon 05:58:15 PM 41.2839 -85.5264 360° North 421 484 25,000  Level Chicago Center
Mon 05:59:17 PM 41.4017 -85.5261 360° North 421 484 25,000  Level Chicago Center
Mon 06:00:19 PM 41.5200 -85.5272 360° North 420 483 25,000 -288 Level Chicago Center
Mon 06:01:22 PM 41.6433 -85.5286 360° North 427 491 24,400 -480 Descending Chicago Center
Mon 06:02:24 PM 41.7628 -85.5269 North 416 479 24,000 -1,065 Descending Chicago Center
Mon 06:03:26 PM 41.8994 -85.5256 360° North 409 471 22,200 -1,887 Descending Chicago Center
Mon 06:04:28 PM 42.0078 -85.5264 360° North 387 445 20,100 -1,887 Descending Chicago Center
Mon 06:05:30 PM 42.0983 -85.5253 North 369 425 18,300 -1,887 Descending Chicago Center
Mon 06:06:32 PM 42.2178 -85.5256 360° North 360 414 16,200 -1,984 Descending Chicago Center
Mon 06:07:34 PM 42.3167 -85.5242 North 358 412 14,200 -1,935 Descending Chicago Center
Mon 06:08:00 PM 42.3566 -85.5167 North  Level FlightAware Approximate
Mon 06:08:36 PM 42.4156 -85.5242 360° North 357 411 12,200  Level Chicago Center
Mon 06:09:38 PM 42.4975 -85.5692 338° Northwest 324 373 10,200 -2,016 Descending Chicago Center
Mon 06:10:41 PM 42.5686 -85.6181 333° Northwest 295 339 8,000 -2,256 Descending Chicago Center
Mon 06:11:43 PM 42.6339 -85.6658 332° Northwest 273 314 5,500 -2,129 Descending Chicago Center
Mon 06:12:45 PM 42.7108 -85.7217 332° Northwest 264 304 3,600 -1,210 Descending Chicago Center
Mon 06:13:47 PM 42.7733 -85.7697 331° Northwest 261 300 3,000 -484 Descending Chicago Center
Mon 06:14:49 PM 42.8331 -85.7772 355° North 236 272 2,600 -242 Descending Chicago Center
Mon 06:15:51 PM 42.8569 -85.7156 62° Northeast 204 235 2,500 -145 Descending Chicago Center
Mon 06:16:53 PM 42.8786 -85.6653 60° Northeast 197 227 2,300 -48 Descending Chicago Center
Mon 06:17:55 PM 42.9256 -85.6131 39° Northeast 188 216 2,400 -145 Climbing Chicago Center
Mon 06:18:57 PM 42.9347 -85.5631 76° East 157 181 2,000 -435 Descending Chicago Center
Mon 06:19:59 PM 42.9225 -85.5264 114° Southeast 130 150 1,500 -532 Descending Chicago Center
Mon 06:21:01 PM 42.8953 -85.5194 169° South 113 130 900 -581 Descending Chicago Center

Login

Don't have an account? Register now (free) for customized features, flight alerts, and more!